Terminal Aerodrome Forecast
Issued by NWS

Home | Current Version | Previous Version | Text Only | Print | Product List | Glossary On
Versions: 1 2 3 4 5 6 7 8 9 10 11 12 13 14
000
FTUS43 KIND 291100
TAFLAF
TAF
KLAF 291120Z 2912/3012 16008KT P6SM SCT250
     FM291400 18016G25KT P6SM BKN150
     FM291800 19020G30KT P6SM -RA BKN040 OVC080
     FM292200 21015G22KT P6SM BKN040 OVC080 PROB30 2922/3002 -SHRA
     FM300200 28009KT P6SM OVC025
      AMD LTD TO CLD VIS AND WIND TIL 291300=

USA.gov is the U.S. government's official web portal to all federal, state and local government web resources and services.